createdAt,value
2018-10-02T00:01:43.178Z,71.10
2018-10-02T00:04:11.631Z,70.30
2018-10-02T00:06:40.048Z,70.10
2018-10-02T00:09:10.753Z,70.40
2018-10-02T00:11:44.546Z,70.70
2018-10-02T00:14:18.186Z,70.70
2018-10-02T00:16:46.717Z,70.50
2018-10-02T00:19:18.884Z,70.80
2018-10-02T00:21:47.301Z,70.70
2018-10-02T00:24:18.508Z,70.60
2018-10-02T00:26:46.903Z,70.40
2018-10-02T00:29:18.049Z,70.40
2018-10-02T00:31:46.537Z,70.60
2018-10-02T00:34:18.509Z,70.50
2018-10-02T00:36:46.885Z,70.40
2018-10-02T00:39:15.294Z,70.50
2018-10-02T00:41:43.702Z,70.50
2018-10-02T00:44:12.159Z,70.50
2018-10-02T00:46:51.718Z,70.40
2018-10-02T00:49:20.128Z,70.50
2018-10-02T00:51:48.684Z,70.60
2018-10-02T00:54:17.064Z,70.60
2018-10-02T00:56:49.477Z,70.50
2018-10-02T00:59:17.863Z,70.60
2018-10-02T01:01:46.295Z,70.20
2018-10-02T01:04:16.315Z,70.20
2018-10-02T01:06:44.764Z,70.40
2018-10-02T01:09:13.480Z,70.50
2018-10-02T01:11:45.432Z,70.40
2018-10-02T01:14:13.843Z,70.60
2018-10-02T01:16:42.355Z,70.70
2018-10-02T01:19:14.429Z,70.70
2018-10-02T01:21:42.846Z,70.50
2018-10-02T01:24:11.243Z,70.70
2018-10-02T01:26:39.728Z,71.60
2018-10-02T01:29:08.178Z,71.20
2018-10-02T01:31:36.618Z,71.40
2018-10-02T01:34:05.238Z,71.10
2018-10-02T01:36:37.293Z,71.00
2018-10-02T01:39:06.818Z,70.90
2018-10-02T01:41:35.262Z,70.80
2018-10-02T01:44:06.338Z,70.70
2018-10-02T01:46:34.781Z,70.70
2018-10-02T01:49:04.875Z,70.70
2018-10-02T01:51:33.276Z,70.60
2018-10-02T01:54:01.693Z,70.60
2018-10-02T01:56:30.085Z,70.70
2018-10-02T01:58:58.496Z,70.60
2018-10-02T02:01:31.914Z,71.10
2018-10-02T02:04:03.953Z,70.80
2018-10-02T02:06:42.416Z,71.40
2018-10-02T02:09:10.901Z,71.50
2018-10-02T02:11:39.362Z,71.30
2018-10-02T02:14:13.626Z,71.40
2018-10-02T02:16:42.067Z,71.60
2018-10-02T02:19:13.301Z,71.50
2018-10-02T02:21:41.695Z,71.30
2018-10-02T02:24:12.940Z,71.20
2018-10-02T02:26:41.406Z,71.10
2018-10-02T02:29:09.817Z,71.30
2018-10-02T02:31:38.191Z,71.50
2018-10-02T02:34:14.714Z,71.30
2018-10-02T02:36:43.213Z,71.20
2018-10-02T02:39:13.676Z,71.00
2018-10-02T02:41:42.881Z,71.10
2018-10-02T02:44:12.406Z,71.20
2018-10-02T02:46:40.875Z,71.50
2018-10-02T02:49:18.732Z,71.40
2018-10-02T02:51:47.925Z,71.50
2018-10-02T02:54:18.047Z,71.40
2018-10-02T02:56:49.040Z,71.60
2018-10-02T02:59:17.533Z,71.60
2018-10-02T03:01:45.975Z,71.60
2018-10-02T03:04:17.035Z,71.60
2018-10-02T03:06:45.485Z,71.70
2018-10-02T03:09:16.371Z,71.50
2018-10-02T03:11:46.070Z,71.60
2018-10-02T03:14:14.511Z,71.70
2018-10-02T03:19:39.201Z,71.60
2018-10-02T03:22:07.713Z,72.20
2018-10-02T03:24:39.954Z,71.50
2018-10-02T03:27:08.403Z,71.60
2018-10-02T03:29:36.916Z,71.60
2018-10-02T03:32:05.377Z,71.60
2018-10-02T03:34:34.680Z,71.60
2018-10-02T03:37:04.885Z,71.80
2018-10-02T03:39:33.453Z,71.90
2018-10-02T03:42:04.960Z,71.70
2018-10-02T03:44:34.806Z,71.90
2018-10-02T03:47:03.346Z,72.20
2018-10-02T03:49:31.868Z,71.90
2018-10-02T03:52:00.329Z,71.90
2018-10-02T03:54:32.243Z,71.70
2018-10-02T03:57:00.833Z,72.00
2018-10-02T03:59:30.598Z,71.90
2018-10-02T04:01:59.216Z,71.80
2018-10-02T04:04:29.468Z,71.90
2018-10-02T04:06:59.066Z,71.70
2018-10-02T04:09:27.569Z,71.90
2018-10-02T04:11:56.063Z,71.90
2018-10-02T04:14:27.350Z,72.00
2018-10-02T04:16:55.816Z,72.00
2018-10-02T04:19:24.300Z,72.10
2018-10-02T04:21:53.029Z,72.20
2018-10-02T04:24:27.578Z,72.20
2018-10-02T04:26:56.082Z,72.00
2018-10-02T04:29:26.529Z,72.10
2018-10-02T04:31:55.013Z,72.20
2018-10-02T04:34:25.201Z,72.10
2018-10-02T04:36:56.063Z,72.30
2018-10-02T04:39:26.161Z,72.20
2018-10-02T04:41:54.764Z,72.40
2018-10-02T04:44:24.560Z,72.50
2018-10-02T04:46:52.982Z,72.20
2018-10-02T04:49:21.720Z,72.70
2018-10-02T04:51:51.934Z,72.20
2018-10-02T04:54:20.366Z,72.20
2018-10-02T04:56:57.131Z,72.40
2018-10-02T04:59:25.523Z,72.40
2018-10-02T05:01:54.170Z,73.10
2018-10-02T05:04:22.660Z,72.90
2018-10-02T05:06:52.179Z,73.00
2018-10-02T05:09:22.046Z,72.40
2018-10-02T05:11:51.217Z,72.40
2018-10-02T05:14:20.779Z,72.40
2018-10-02T05:16:50.183Z,72.90
2018-10-02T05:19:18.718Z,72.90
2018-10-02T05:21:48.227Z,72.80
2018-10-02T05:24:16.700Z,72.60
2018-10-02T05:26:46.074Z,72.90
2018-10-02T05:29:15.343Z,72.90
2018-10-02T05:31:44.801Z,72.90
2018-10-02T05:34:14.451Z,72.80
2018-10-02T05:36:42.970Z,72.60
2018-10-02T05:39:12.001Z,72.90
2018-10-02T05:41:40.977Z,73.00
2018-10-02T05:44:09.430Z,72.70
2018-10-02T05:46:39.036Z,72.90
2018-10-02T05:49:07.521Z,72.90
2018-10-02T05:51:36.127Z,72.90
2018-10-02T05:54:04.616Z,73.20
2018-10-02T05:56:34.222Z,72.90
2018-10-02T05:59:03.622Z,72.90
2018-10-02T06:01:33.592Z,72.90
2018-10-02T06:04:04.266Z,73.00
2018-10-02T06:06:32.809Z,73.30
2018-10-02T06:09:01.281Z,72.90
2018-10-02T06:11:29.796Z,73.00
2018-10-02T06:17:01.680Z,72.60
2018-10-02T06:19:32.564Z,72.90
2018-10-02T06:22:01.780Z,72.90
2018-10-02T06:24:31.105Z,72.90
2018-10-02T06:26:59.849Z,73.10
2018-10-02T06:29:29.791Z,73.30
2018-10-02T06:31:58.681Z,73.30
2018-10-02T06:34:33.281Z,73.20
2018-10-02T06:37:02.812Z,73.10
2018-10-02T06:39:33.803Z,72.50
2018-10-02T06:42:04.435Z,73.40
2018-10-02T06:44:33.250Z,73.50
2018-10-02T06:47:01.903Z,73.50
2018-10-02T06:49:30.489Z,73.70
2018-10-02T06:52:00.880Z,73.30
2018-10-02T06:54:30.384Z,73.60
2018-10-02T06:56:58.898Z,73.50
2018-10-02T06:59:27.536Z,73.70
2018-10-02T07:01:56.055Z,73.20
2018-10-02T07:04:24.670Z,73.50
2018-10-02T07:06:54.841Z,74.00
2018-10-02T07:09:24.497Z,73.80
2018-10-02T07:11:52.909Z,74.10
2018-10-02T07:14:29.112Z,73.90
2018-10-02T07:16:58.343Z,73.90
2018-10-02T07:19:27.862Z,73.70
2018-10-02T07:21:56.854Z,73.90
2018-10-02T07:24:25.926Z,73.90
2018-10-02T07:29:48.383Z,73.80
2018-10-02T07:32:16.818Z,73.90
2018-10-02T07:34:45.318Z,73.70
2018-10-02T07:37:14.652Z,73.60
2018-10-02T07:39:44.157Z,73.30
2018-10-02T07:42:13.658Z,73.90
2018-10-02T07:44:44.309Z,73.60
2018-10-02T07:47:13.900Z,73.40
2018-10-02T07:49:43.812Z,74.30
2018-10-02T07:55:05.993Z,73.10
2018-10-02T07:57:34.514Z,73.90
2018-10-02T08:00:04.565Z,73.00
2018-10-02T08:02:33.839Z,72.90
2018-10-02T08:05:04.011Z,72.50
2018-10-02T08:07:33.165Z,72.70
2018-10-02T08:10:01.613Z,73.20
2018-10-02T08:12:30.238Z,73.30
2018-10-02T08:15:00.091Z,73.20
2018-10-02T08:17:30.035Z,73.10
2018-10-02T08:19:58.801Z,72.80
2018-10-02T08:22:27.520Z,72.80
2018-10-02T08:24:56.156Z,72.70
2018-10-02T08:27:28.689Z,72.60
2018-10-02T08:29:57.370Z,72.40
2018-10-02T08:32:26.140Z,72.30
2018-10-02T08:34:54.799Z,72.20
2018-10-02T08:37:24.330Z,72.50
2018-10-02T08:39:52.773Z,72.30
2018-10-02T08:42:21.269Z,72.40
2018-10-02T08:47:42.657Z,72.20
2018-10-02T08:50:11.314Z,72.30
2018-10-02T08:52:39.889Z,72.70
2018-10-02T08:55:08.872Z,72.30
2018-10-02T08:57:46.491Z,72.30
2018-10-02T09:00:16.001Z,72.20
2018-10-02T09:02:44.554Z,72.40
2018-10-02T09:08:05.901Z,72.60
2018-10-02T09:10:34.461Z,72.10
2018-10-02T09:13:03.555Z,71.80
2018-10-02T09:15:33.631Z,71.90
2018-10-02T09:18:14.848Z,72.30
2018-10-02T09:20:44.671Z,72.40
2018-10-02T09:23:14.137Z,71.80
2018-10-02T09:25:42.689Z,71.70
2018-10-02T09:39:25.688Z,71.10
2018-10-02T09:44:33.735Z,71.70
2018-10-02T09:47:02.237Z,71.80
2018-10-02T09:49:30.668Z,71.30
2018-10-02T09:52:00.201Z,71.40
2018-10-02T09:57:21.415Z,71.40
2018-10-02T09:59:49.925Z,71.30
2018-10-02T10:04:57.819Z,70.90
2018-10-02T10:07:26.320Z,70.70
2018-10-02T10:09:56.434Z,71.00
2018-10-02T10:12:24.948Z,70.70
2018-10-02T10:14:53.419Z,70.60
2018-10-02T10:17:22.313Z,70.60
2018-10-02T10:19:51.507Z,70.90
2018-10-02T10:22:20.151Z,70.80
2018-10-02T10:27:41.998Z,70.90
2018-10-02T10:30:10.506Z,70.70
2018-10-02T10:32:38.945Z,71.00
2018-10-02T10:35:07.464Z,70.70
2018-10-02T10:37:36.275Z,70.50
2018-10-02T10:40:05.220Z,70.50
2018-10-02T10:42:33.698Z,70.10
2018-10-02T10:45:03.674Z,70.30
2018-10-02T10:50:27.215Z,70.00
2018-10-02T10:52:56.455Z,70.10
2018-10-02T10:55:40.176Z,70.10
2018-10-02T10:58:08.731Z,70.10
2018-10-02T11:00:37.315Z,70.30
2018-10-02T11:03:05.763Z,69.70
2018-10-02T11:05:34.874Z,70.00
2018-10-02T11:08:03.471Z,70.00
2018-10-02T11:10:32.034Z,69.90
2018-10-02T11:13:18.926Z,69.20
2018-10-02T11:15:47.431Z,69.60
2018-10-02T11:21:09.985Z,69.50
2018-10-02T11:23:45.074Z,69.20
2018-10-02T11:26:13.867Z,69.70
2018-10-02T11:28:42.384Z,69.80
2018-10-02T11:31:10.930Z,69.20
2018-10-02T11:33:39.669Z,70.10
2018-10-02T11:36:08.455Z,69.90
2018-10-02T11:38:37.031Z,69.70
2018-10-02T11:41:08.644Z,69.60
2018-10-02T11:43:39.009Z,70.00
2018-10-02T11:46:09.698Z,69.80
2018-10-02T11:48:38.236Z,69.80
2018-10-02T11:54:01.444Z,69.10
2018-10-02T11:56:29.982Z,68.50
2018-10-02T11:58:58.392Z,68.80
2018-10-02T12:01:27.089Z,69.50
2018-10-02T12:03:55.800Z,69.30
2018-10-02T12:06:24.445Z,68.80
2018-10-02T12:08:53.037Z,67.20
2018-10-02T12:11:21.722Z,67.30
2018-10-02T12:13:51.162Z,66.70
2018-10-02T12:16:19.831Z,67.30
2018-10-02T12:18:49.088Z,66.70
2018-10-02T12:21:19.229Z,66.90
2018-10-02T12:23:48.695Z,67.10
2018-10-02T12:26:18.161Z,67.40
2018-10-02T12:28:47.883Z,67.40
2018-10-02T12:31:19.469Z,67.00
2018-10-02T12:33:48.074Z,67.00
2018-10-02T12:36:16.604Z,67.10
2018-10-02T12:38:46.143Z,66.30
2018-10-02T12:41:14.677Z,66.10
2018-10-02T12:43:43.827Z,66.30
2018-10-02T12:46:12.507Z,66.50
2018-10-02T12:48:41.142Z,66.50
2018-10-02T12:51:09.935Z,66.90
2018-10-02T12:53:38.435Z,67.20
2018-10-02T12:56:15.028Z,68.10
2018-10-02T12:58:43.509Z,67.30
2018-10-02T13:01:12.548Z,67.20
2018-10-02T13:03:40.988Z,66.70
2018-10-02T13:06:10.388Z,66.50
2018-10-02T13:08:38.837Z,66.80
2018-10-02T13:11:09.201Z,67.00
2018-10-02T13:13:38.010Z,66.60
2018-10-02T13:18:59.602Z,66.80
2018-10-02T13:21:28.181Z,67.20
2018-10-02T13:23:56.562Z,67.00
2018-10-02T13:26:26.261Z,66.90
2018-10-02T13:28:54.956Z,67.50
2018-10-02T13:31:23.512Z,66.20
2018-10-02T13:33:51.958Z,66.50
2018-10-02T13:39:13.980Z,65.80
2018-10-02T13:41:42.477Z,66.50
2018-10-02T13:47:04.707Z,65.80
2018-10-02T13:49:33.138Z,66.10
2018-10-02T13:52:03.147Z,64.90
2018-10-02T13:54:31.621Z,64.60
2018-10-02T13:57:00.403Z,66.30
2018-10-02T13:59:44.875Z,66.00
2018-10-02T14:02:13.297Z,65.90
2018-10-02T14:04:42.676Z,65.50
2018-10-02T14:14:10.159Z,65.60
2018-10-02T14:19:31.293Z,66.50
2018-10-02T14:21:59.812Z,66.40
2018-10-02T14:24:29.256Z,66.50
2018-10-02T14:26:57.790Z,66.70
2018-10-02T14:29:27.285Z,66.40
2018-10-02T14:31:55.948Z,66.20
2018-10-02T14:37:18.270Z,66.40
2018-10-02T14:39:46.747Z,66.10
2018-10-02T14:42:15.915Z,66.00
2018-10-02T14:44:45.889Z,66.10
2018-10-02T14:47:15.079Z,65.80
2018-10-02T14:49:43.836Z,65.70
2018-10-02T14:52:12.301Z,66.10
2018-10-02T15:00:28.781Z,65.30
2018-10-02T15:02:57.304Z,65.80
2018-10-02T15:08:18.631Z,65.60
2018-10-02T15:10:47.082Z,65.80
2018-10-02T15:13:16.882Z,65.50
2018-10-02T15:18:38.179Z,66.30
2018-10-02T15:21:06.733Z,66.40
2018-10-02T15:23:35.313Z,66.40
2018-10-02T15:26:03.756Z,66.20
2018-10-02T15:28:32.261Z,67.30
2018-10-02T15:31:00.714Z,66.80
2018-10-02T15:33:29.119Z,66.80
2018-10-02T15:35:57.629Z,67.10
2018-10-02T15:38:26.180Z,67.60
2018-10-02T15:40:54.830Z,67.50
2018-10-02T15:43:23.257Z,67.50
2018-10-02T15:45:51.684Z,67.80
2018-10-02T15:48:20.160Z,68.10
2018-10-02T15:50:48.596Z,68.30
2018-10-02T15:53:17.301Z,68.50
2018-10-02T15:55:45.791Z,68.60
2018-10-02T15:58:14.370Z,68.80
2018-10-02T16:00:43.038Z,69.10
2018-10-02T16:03:11.501Z,69.40
2018-10-02T16:05:39.919Z,69.50
2018-10-02T16:08:08.428Z,69.60
2018-10-02T16:10:36.904Z,69.70
2018-10-02T16:13:05.693Z,70.20
2018-10-02T16:15:34.238Z,70.50
2018-10-02T16:18:02.704Z,70.50
2018-10-02T16:20:31.404Z,71.20
2018-10-02T16:22:59.829Z,71.30
2018-10-02T16:25:28.472Z,71.40
2018-10-02T16:27:56.854Z,71.70
2018-10-02T16:30:25.274Z,71.80
2018-10-02T16:32:53.707Z,72.10
2018-10-02T16:35:22.133Z,72.10
2018-10-02T16:37:50.577Z,72.00
2018-10-02T16:40:19.099Z,72.20
2018-10-02T16:42:47.552Z,72.40
2018-10-02T16:45:16.093Z,72.30
2018-10-02T16:47:44.628Z,72.70
2018-10-02T16:50:13.154Z,72.40
2018-10-02T16:52:41.658Z,72.40
2018-10-02T16:55:10.173Z,72.70
2018-10-02T16:57:38.610Z,72.70
2018-10-02T17:00:07.868Z,72.40
2018-10-02T17:02:36.287Z,72.60
2018-10-02T17:05:04.718Z,72.70
2018-10-02T17:07:33.157Z,72.70
2018-10-02T17:10:01.606Z,72.70
2018-10-02T17:12:30.006Z,72.70
2018-10-02T17:14:58.490Z,72.80
2018-10-02T17:17:26.908Z,72.80
2018-10-02T17:19:55.558Z,73.00
2018-10-02T17:22:24.024Z,72.90
2018-10-02T17:24:52.516Z,73.10
2018-10-02T17:27:20.998Z,72.80
2018-10-02T17:29:49.386Z,73.00
2018-10-02T17:32:17.901Z,73.20
2018-10-02T17:34:46.376Z,73.30
2018-10-02T17:37:14.969Z,73.20
2018-10-02T17:39:43.526Z,73.20
2018-10-02T17:42:12.124Z,73.10
2018-10-02T17:44:40.672Z,73.40
2018-10-02T17:47:09.260Z,73.40
2018-10-02T17:49:37.776Z,73.30
2018-10-02T17:52:06.307Z,73.20
2018-10-02T17:54:34.758Z,73.30
2018-10-02T17:57:03.161Z,73.40
2018-10-02T17:59:31.643Z,73.50
2018-10-02T18:02:00.084Z,73.50
2018-10-02T18:04:28.535Z,74.30
2018-10-02T18:06:56.972Z,73.70
2018-10-02T18:09:25.457Z,73.50
2018-10-02T18:11:53.887Z,73.60
2018-10-02T18:14:22.338Z,73.70
2018-10-02T18:16:50.837Z,74.20
2018-10-02T18:19:19.218Z,73.60
2018-10-02T18:21:47.705Z,73.80
2018-10-02T18:24:16.138Z,73.80
2018-10-02T18:26:44.650Z,74.00
2018-10-02T18:29:13.257Z,74.10
2018-10-02T18:31:41.724Z,73.90
2018-10-02T18:34:10.180Z,74.20
2018-10-02T18:36:38.653Z,74.30
2018-10-02T18:39:07.590Z,74.60
2018-10-02T18:41:36.038Z,74.80
2018-10-02T18:44:04.448Z,75.20
2018-10-02T18:46:33.448Z,75.50
2018-10-02T18:49:01.952Z,75.50
2018-10-02T18:51:30.595Z,75.60
2018-10-02T18:53:59.103Z,75.60
2018-10-02T18:56:27.689Z,75.70
2018-10-02T18:58:56.306Z,76.00
2018-10-02T19:01:24.804Z,75.50
2018-10-02T19:03:53.430Z,75.70
2018-10-02T19:06:21.981Z,75.70
2018-10-02T19:08:55.807Z,76.00
2018-10-02T19:11:29.356Z,75.70
2018-10-02T19:13:57.739Z,75.70
2018-10-02T19:16:30.435Z,75.60
2018-10-02T19:18:59.071Z,75.60
2018-10-02T19:21:28.259Z,76.50
2018-10-02T19:23:56.716Z,75.90
2018-10-02T19:26:27.690Z,75.60
2018-10-02T19:28:56.191Z,76.00
2018-10-02T19:31:29.926Z,75.80
2018-10-02T19:33:59.104Z,76.10
2018-10-02T19:36:27.500Z,76.00
2018-10-02T19:38:59.653Z,75.90
2018-10-02T19:41:28.787Z,75.80
2018-10-02T19:43:57.205Z,75.80
2018-10-02T19:47:00.806Z,75.90
2018-10-02T19:49:30.642Z,76.30
2018-10-02T19:52:01.554Z,75.80
2018-10-02T19:54:30.168Z,75.40
2018-10-02T19:56:58.552Z,75.60
2018-10-02T19:59:27.354Z,75.40
2018-10-02T20:01:55.849Z,75.50
2018-10-02T20:04:24.464Z,75.20
2018-10-02T20:06:53.115Z,75.10
2018-10-02T20:09:21.586Z,74.90
2018-10-02T20:11:49.970Z,74.80
2018-10-02T20:14:18.507Z,75.00
2018-10-02T20:16:46.988Z,75.00
2018-10-02T20:19:15.605Z,74.90
2018-10-02T20:21:44.093Z,75.00
2018-10-02T20:24:12.531Z,74.90
2018-10-02T20:26:40.954Z,74.80
2018-10-02T20:29:09.400Z,74.90
2018-10-02T20:31:40.510Z,75.00
2018-10-02T20:34:09.040Z,75.00
2018-10-02T20:36:37.551Z,75.10
2018-10-02T20:39:07.968Z,74.70
2018-10-02T20:41:36.424Z,74.70
2018-10-02T20:44:05.085Z,74.80
2018-10-02T20:46:33.595Z,75.70
2018-10-02T20:49:02.185Z,74.80
2018-10-02T20:51:30.828Z,75.00
2018-10-02T20:53:59.783Z,75.00
2018-10-02T20:56:28.986Z,75.20
2018-10-02T20:58:57.407Z,75.30
2018-10-02T21:01:26.109Z,75.20
2018-10-02T21:03:54.640Z,75.30
2018-10-02T21:06:23.195Z,75.40
2018-10-02T21:08:51.596Z,75.60
2018-10-02T21:11:20.112Z,75.70
2018-10-02T21:13:48.624Z,75.90
2018-10-02T21:16:17.102Z,75.80
2018-10-02T21:18:45.577Z,75.50
2018-10-02T21:21:14.018Z,75.50
2018-10-02T21:23:42.437Z,75.70
2018-10-02T21:26:10.792Z,75.70
2018-10-02T21:28:39.242Z,75.50
2018-10-02T21:31:08.129Z,75.70
2018-10-02T21:33:36.561Z,76.20
2018-10-02T21:36:05.063Z,76.00
2018-10-02T21:38:33.409Z,75.90
2018-10-02T21:41:01.807Z,75.80
2018-10-02T21:43:30.269Z,75.70
2018-10-02T21:45:58.758Z,76.00
2018-10-02T21:48:27.395Z,76.00
2018-10-02T21:50:55.921Z,76.10
2018-10-02T21:53:24.358Z,76.30
2018-10-02T21:55:52.759Z,76.20
2018-10-02T21:58:21.298Z,76.20
2018-10-02T22:00:49.772Z,76.40
2018-10-02T22:03:18.218Z,76.60
2018-10-02T22:05:46.622Z,76.40
2018-10-02T22:08:15.030Z,76.70
2018-10-02T22:10:43.532Z,76.90
2018-10-02T22:13:11.998Z,76.70
2018-10-02T22:15:40.383Z,76.80
2018-10-02T22:18:08.799Z,76.70
2018-10-02T22:20:37.253Z,76.60
2018-10-02T22:23:05.688Z,76.40
2018-10-02T22:25:34.119Z,76.50
2018-10-02T22:28:02.606Z,76.60
2018-10-02T22:30:31.092Z,76.60
2018-10-02T22:32:59.618Z,77.40
2018-10-02T22:35:28.064Z,76.70
2018-10-02T22:37:56.466Z,76.90
2018-10-02T22:40:24.928Z,77.10
2018-10-02T22:42:53.404Z,76.90
2018-10-02T22:45:21.828Z,76.60
2018-10-02T22:47:50.297Z,77.30
2018-10-02T22:50:18.660Z,76.90
2018-10-02T22:52:47.108Z,76.70
2018-10-02T22:55:15.490Z,76.80
2018-10-02T22:57:43.979Z,76.70
2018-10-02T23:00:12.410Z,76.60
2018-10-02T23:02:40.829Z,76.80
2018-10-02T23:05:09.260Z,76.70
2018-10-02T23:07:37.623Z,76.80
2018-10-02T23:10:06.069Z,76.70
2018-10-02T23:12:34.465Z,76.90
2018-10-02T23:15:02.938Z,77.00
2018-10-02T23:17:31.280Z,77.00
2018-10-02T23:19:59.689Z,77.00
2018-10-02T23:22:28.189Z,76.90
2018-10-02T23:24:56.583Z,76.90
2018-10-02T23:27:25.097Z,77.10
2018-10-02T23:29:53.611Z,76.70
2018-10-02T23:32:22.180Z,77.00
2018-10-02T23:34:50.645Z,76.90
2018-10-02T23:37:19.108Z,76.90
2018-10-02T23:39:47.908Z,77.20
2018-10-02T23:42:16.317Z,77.30
2018-10-02T23:44:44.750Z,77.20
2018-10-02T23:47:13.142Z,77.60
2018-10-02T23:49:41.550Z,77.70
2018-10-02T23:52:09.978Z,78.60
2018-10-02T23:54:38.418Z,78.10
2018-10-02T23:57:06.984Z,79.10
2018-10-02T23:59:35.438Z,79.00
